sensor_id;sensor_type;location;lat;lon;timestamp;pressure;altitude;pressure_sealevel;temperature;humidity
10732;BME280;5417;42.686;23.244;2023-03-14T00:00:19;94500.31;;;6.38;51.09
10732;BME280;5417;42.686;23.244;2023-03-14T00:02:51;94491.84;;;6.36;51.25
10732;BME280;5417;42.686;23.244;2023-03-14T00:05:20;94490.28;;;6.33;51.02
10732;BME280;5417;42.686;23.244;2023-03-14T00:07:47;94486.13;;;6.31;51.56
10732;BME280;5417;42.686;23.244;2023-03-14T00:10:14;94481.97;;;6.28;51.78
10732;BME280;5417;42.686;23.244;2023-03-14T00:12:42;94478.00;;;6.23;52.45
10732;BME280;5417;42.686;23.244;2023-03-14T00:15:09;94478.75;;;6.25;52.66
10732;BME280;5417;42.686;23.244;2023-03-14T00:17:37;94471.28;;;6.20;52.30
10732;BME280;5417;42.686;23.244;2023-03-14T00:20:06;94474.16;;;6.16;53.02
10732;BME280;5417;42.686;23.244;2023-03-14T00:22:38;94470.84;;;6.14;51.06
10732;BME280;5417;42.686;23.244;2023-03-14T00:25:07;94467.03;;;6.19;49.83
10732;BME280;5417;42.686;23.244;2023-03-14T00:27:34;94459.75;;;6.26;49.10
10732;BME280;5417;42.686;23.244;2023-03-14T00:30:01;94462.13;;;6.29;48.07
10732;BME280;5417;42.686;23.244;2023-03-14T00:32:30;94459.16;;;6.35;48.42
10732;BME280;5417;42.686;23.244;2023-03-14T00:34:58;94455.66;;;6.36;48.33
10732;BME280;5417;42.686;23.244;2023-03-14T00:37:26;94453.06;;;6.36;48.37
10732;BME280;5417;42.686;23.244;2023-03-14T00:39:54;94454.28;;;6.30;49.61
10732;BME280;5417;42.686;23.244;2023-03-14T00:42:21;94456.03;;;6.30;49.17
10732;BME280;5417;42.686;23.244;2023-03-14T00:44:48;94446.75;;;6.40;48.57
10732;BME280;5417;42.686;23.244;2023-03-14T00:47:15;94456.13;;;6.28;49.92
10732;BME280;5417;42.686;23.244;2023-03-14T00:49:42;94445.53;;;6.19;50.76
10732;BME280;5417;42.686;23.244;2023-03-14T00:52:09;94448.22;;;6.17;49.95
10732;BME280;5417;42.686;23.244;2023-03-14T00:54:36;94446.75;;;6.13;49.84
10732;BME280;5417;42.686;23.244;2023-03-14T00:57:04;94436.50;;;6.12;49.54
10732;BME280;5417;42.686;23.244;2023-03-14T00:59:31;94439.28;;;6.09;50.06
10732;BME280;5417;42.686;23.244;2023-03-14T01:01:58;94434.41;;;6.04;49.89
10732;BME280;5417;42.686;23.244;2023-03-14T01:04:25;94434.41;;;6.04;49.28
10732;BME280;5417;42.686;23.244;2023-03-14T01:06:51;94434.50;;;6.03;50.10
10732;BME280;5417;42.686;23.244;2023-03-14T01:09:18;94429.63;;;5.98;50.10
10732;BME280;5417;42.686;23.244;2023-03-14T01:11:45;94429.84;;;5.95;49.47
10732;BME280;5417;42.686;23.244;2023-03-14T01:14:13;94415.81;;;5.85;49.75
10732;BME280;5417;42.686;23.244;2023-03-14T01:16:40;94424.19;;;5.88;50.42
10732;BME280;5417;42.686;23.244;2023-03-14T01:19:08;94424.19;;;5.88;50.53
10732;BME280;5417;42.686;23.244;2023-03-14T01:21:36;94414.88;;;5.86;50.66
10732;BME280;5417;42.686;23.244;2023-03-14T01:24:04;94401.44;;;5.81;49.94
10732;BME280;5417;42.686;23.244;2023-03-14T01:26:33;94387.97;;;5.76;50.41
10732;BME280;5417;42.686;23.244;2023-03-14T01:29:00;94412.41;;;5.84;49.94
10732;BME280;5417;42.686;23.244;2023-03-14T01:31:29;94407.53;;;5.80;49.36
10732;BME280;5417;42.686;23.244;2023-03-14T01:33:56;94395.72;;;5.76;50.50
10732;BME280;5417;42.686;23.244;2023-03-14T01:36:23;94396.66;;;5.75;49.74
10732;BME280;5417;42.686;23.244;2023-03-14T01:38:50;94401.09;;;5.73;49.83
10732;BME280;5417;42.686;23.244;2023-03-14T01:41:19;94394.81;;;5.62;50.28
10732;BME280;5417;42.686;23.244;2023-03-14T01:43:46;94393.16;;;5.61;50.57
10732;BME280;5417;42.686;23.244;2023-03-14T01:46:19;94400.81;;;5.63;50.26
10732;BME280;5417;42.686;23.244;2023-03-14T01:48:53;94394.81;;;5.62;50.43
10732;BME280;5417;42.686;23.244;2023-03-14T01:51:25;94390.84;;;5.57;50.08
10732;BME280;5417;42.686;23.244;2023-03-14T01:53:55;94384.88;;;5.56;50.89
10732;BME280;5417;42.686;23.244;2023-03-14T01:56:26;94387.63;;;5.53;50.40
10732;BME280;5417;42.686;23.244;2023-03-14T01:58:53;94385.88;;;5.54;50.68
10732;BME280;5417;42.686;23.244;2023-03-14T02:01:24;94380.00;;;5.52;50.35
10732;BME280;5417;42.686;23.244;2023-03-14T02:03:55;94381.00;;;5.49;49.80
10732;BME280;5417;42.686;23.244;2023-03-14T02:06:27;94376.78;;;5.48;51.02
10732;BME280;5417;42.686;23.244;2023-03-14T02:08:55;94381.41;;;5.43;50.77
10732;BME280;5417;42.686;23.244;2023-03-14T02:11:26;94371.25;;;5.40;50.79
10732;BME280;5417;42.686;23.244;2023-03-14T02:13:55;94374.84;;;5.37;50.96
10732;BME280;5417;42.686;23.244;2023-03-14T02:16:22;94377.63;;;5.34;51.07
10732;BME280;5417;42.686;23.244;2023-03-14T02:18:49;94374.94;;;5.36;52.00
10732;BME280;5417;42.686;23.244;2023-03-14T02:21:22;94370.91;;;5.32;51.72
10732;BME280;5417;42.686;23.244;2023-03-14T02:23:57;94366.13;;;5.26;51.20
10732;BME280;5417;42.686;23.244;2023-03-14T02:26:30;94373.78;;;5.27;51.41
10732;BME280;5417;42.686;23.244;2023-03-14T02:28:59;94372.13;;;5.26;51.31
10732;BME280;5417;42.686;23.244;2023-03-14T02:31:26;94376.63;;;5.23;52.44
10732;BME280;5417;42.686;23.244;2023-03-14T02:33:54;94374.78;;;5.25;53.15
10732;BME280;5417;42.686;23.244;2023-03-14T02:36:22;94379.13;;;5.24;51.91
10732;BME280;5417;42.686;23.244;2023-03-14T02:38:53;94378.38;;;5.22;51.95
10732;BME280;5417;42.686;23.244;2023-03-14T02:41:22;94377.66;;;5.20;51.33
10732;BME280;5417;42.686;23.244;2023-03-14T02:43:49;94384.38;;;5.23;51.69
10732;BME280;5417;42.686;23.244;2023-03-14T02:46:18;94383.53;;;5.22;52.46
10732;BME280;5417;42.686;23.244;2023-03-14T02:48:50;94381.69;;;5.24;51.64
10732;BME280;5417;42.686;23.244;2023-03-14T02:51:19;94378.94;;;5.27;50.73
10732;BME280;5417;42.686;23.244;2023-03-14T02:53:46;94378.94;;;5.27;50.59
10732;BME280;5417;42.686;23.244;2023-03-14T02:56:13;94382.34;;;5.28;50.69
10732;BME280;5417;42.686;23.244;2023-03-14T02:58:40;94381.88;;;5.21;51.41
10732;BME280;5417;42.686;23.244;2023-03-14T03:01:07;94387.69;;;5.25;50.74
10732;BME280;5417;42.686;23.244;2023-03-14T03:03:35;94380.69;;;5.27;51.30
10732;BME280;5417;42.686;23.244;2023-03-14T03:06:02;94379.66;;;5.29;50.90
10732;BME280;5417;42.686;23.244;2023-03-14T03:08:29;94381.41;;;5.29;50.97
10732;BME280;5417;42.686;23.244;2023-03-14T03:10:57;94382.34;;;5.28;52.06
10732;BME280;5417;42.686;23.244;2023-03-14T03:13:25;94375.53;;;5.27;52.73
10732;BME280;5417;42.686;23.244;2023-03-14T03:15:52;94377.81;;;5.17;52.82
10732;BME280;5417;42.686;23.244;2023-03-14T03:18:19;94382.03;;;5.18;52.02
10732;BME280;5417;42.686;23.244;2023-03-14T03:20:47;94380.84;;;5.10;52.10
10732;BME280;5417;42.686;23.244;2023-03-14T03:23:14;94362.91;;;4.94;52.61
10732;BME280;5417;42.686;23.244;2023-03-14T03:25:41;94378.09;;;4.98;52.92
10732;BME280;5417;42.686;23.244;2023-03-14T03:28:08;94377.00;;;4.88;52.92
10732;BME280;5417;42.686;23.244;2023-03-14T03:30:38;94378.47;;;4.92;53.02
10732;BME280;5417;42.686;23.244;2023-03-14T03:33:05;94377.72;;;4.90;53.15
10732;BME280;5417;42.686;23.244;2023-03-14T03:35:32;94377.19;;;4.85;52.54
10732;BME280;5417;42.686;23.244;2023-03-14T03:38:00;94379.09;;;4.82;53.51
10732;BME280;5417;42.686;23.244;2023-03-14T03:40:27;94376.81;;;4.77;53.74
10732;BME280;5417;42.686;23.244;2023-03-14T03:42:54;94380.13;;;4.79;53.77
10732;BME280;5417;42.686;23.244;2023-03-14T03:45:21;94387.22;;;4.75;53.35
10732;BME280;5417;42.686;23.244;2023-03-14T03:47:48;94395.88;;;4.74;52.98
10732;BME280;5417;42.686;23.244;2023-03-14T03:50:15;94394.28;;;4.72;53.23
10732;BME280;5417;42.686;23.244;2023-03-14T03:52:42;94386.06;;;4.65;52.83
10732;BME280;5417;42.686;23.244;2023-03-14T03:55:10;94381.66;;;4.67;52.92
10732;BME280;5417;42.686;23.244;2023-03-14T03:57:37;94389.38;;;4.67;53.52
10732;BME280;5417;42.686;23.244;2023-03-14T04:00:05;94392.72;;;4.69;53.46
10732;BME280;5417;42.686;23.244;2023-03-14T04:02:34;94381.00;;;4.64;54.25
10732;BME280;5417;42.686;23.244;2023-03-14T04:05:01;94388.72;;;4.64;53.84
10732;BME280;5417;42.686;23.244;2023-03-14T04:07:30;94393.88;;;4.64;54.30
10732;BME280;5417;42.686;23.244;2023-03-14T04:09:57;94381.91;;;4.63;53.97
10732;BME280;5417;42.686;23.244;2023-03-14T04:12:25;94387.06;;;4.63;53.31
10732;BME280;5417;42.686;23.244;2023-03-14T04:14:52;94387.06;;;4.63;53.22
10732;BME280;5417;42.686;23.244;2023-03-14T04:17:19;94381.19;;;4.61;52.80
10732;BME280;5417;42.686;23.244;2023-03-14T04:19:46;94375.94;;;4.62;52.96
10732;BME280;5417;42.686;23.244;2023-03-14T04:22:15;94375.09;;;4.62;53.14
10732;BME280;5417;42.686;23.244;2023-03-14T04:24:41;94365.97;;;4.56;53.75
10732;BME280;5417;42.686;23.244;2023-03-14T04:27:08;94367.38;;;4.62;53.18
10732;BME280;5417;42.686;23.244;2023-03-14T04:29:37;94351.34;;;4.57;53.76
10732;BME280;5417;42.686;23.244;2023-03-14T04:32:04;94354.47;;;4.62;54.20
10732;BME280;5417;42.686;23.244;2023-03-14T04:34:31;94351.63;;;4.66;53.47
10732;BME280;5417;42.686;23.244;2023-03-14T04:36:58;94356.63;;;4.69;54.20
10732;BME280;5417;42.686;23.244;2023-03-14T04:39:24;94343.75;;;4.69;53.41
10732;BME280;5417;42.686;23.244;2023-03-14T04:41:53;94347.16;;;4.70;53.41
10732;BME280;5417;42.686;23.244;2023-03-14T04:44:23;94343.06;;;4.66;53.77
10732;BME280;5417;42.686;23.244;2023-03-14T04:46:51;94342.00;;;4.70;53.33
10732;BME280;5417;42.686;23.244;2023-03-14T04:49:18;94346.03;;;4.88;53.92
10732;BME280;5417;42.686;23.244;2023-03-14T04:51:45;94332.38;;;5.15;52.66
10732;BME280;5417;42.686;23.244;2023-03-14T04:54:12;94334.34;;;5.52;52.29
10732;BME280;5417;42.686;23.244;2023-03-14T04:56:39;94327.16;;;6.11;51.83
10732;BME280;5417;42.686;23.244;2023-03-14T04:59:06;94322.59;;;6.67;50.59
10732;BME280;5417;42.686;23.244;2023-03-14T05:01:34;94316.66;;;7.16;49.43
10732;BME280;5417;42.686;23.244;2023-03-14T05:04:02;94320.53;;;7.47;48.22
10732;BME280;5417;42.686;23.244;2023-03-14T05:06:29;94320.66;;;7.45;47.43
10732;BME280;5417;42.686;23.244;2023-03-14T05:08:56;94325.31;;;7.27;48.05
10732;BME280;5417;42.686;23.244;2023-03-14T05:11:23;94332.41;;;7.13;48.15
10732;BME280;5417;42.686;23.244;2023-03-14T05:13:50;94320.97;;;7.65;50.40
10732;BME280;5417;42.686;23.244;2023-03-14T05:16:17;94320.81;;;8.62;47.81
10732;BME280;5417;42.686;23.244;2023-03-14T05:18:44;94308.19;;;9.69;45.45
10732;BME280;5417;42.686;23.244;2023-03-14T05:21:12;94301.78;;;10.69;42.79
10732;BME280;5417;42.686;23.244;2023-03-14T05:23:39;94301.25;;;11.57;41.22
10732;BME280;5417;42.686;23.244;2023-03-14T05:26:06;94291.75;;;12.35;39.06
10732;BME280;5417;42.686;23.244;2023-03-14T05:28:33;94290.28;;;13.08;36.85
10732;BME280;5417;42.686;23.244;2023-03-14T05:31:00;94298.63;;;13.85;35.59
10732;BME280;5417;42.686;23.244;2023-03-14T05:33:27;94282.72;;;14.60;32.96
10732;BME280;5417;42.686;23.244;2023-03-14T05:35:54;94291.25;;;15.39;32.23
10732;BME280;5417;42.686;23.244;2023-03-14T05:38:22;94286.72;;;15.92;31.16
10732;BME280;5417;42.686;23.244;2023-03-14T05:40:49;94292.09;;;16.32;31.07
10732;BME280;5417;42.686;23.244;2023-03-14T05:43:16;94294.72;;;16.57;29.60
10732;BME280;5417;42.686;23.244;2023-03-14T05:45:43;94290.75;;;16.28;29.12
10732;BME280;5417;42.686;23.244;2023-03-14T05:48:10;94282.69;;;16.14;29.38
10732;BME280;5417;42.686;23.244;2023-03-14T05:50:37;94288.06;;;16.04;29.34
10732;BME280;5417;42.686;23.244;2023-03-14T05:53:04;94289.78;;;15.71;29.57
10732;BME280;5417;42.686;23.244;2023-03-14T05:55:32;94296.63;;;15.38;29.83
10732;BME280;5417;42.686;23.244;2023-03-14T05:57:59;94291.91;;;14.90;30.38
10732;BME280;5417;42.686;23.244;2023-03-14T06:00:26;94296.66;;;14.33;31.38
10732;BME280;5417;42.686;23.244;2023-03-14T06:02:53;94298.94;;;13.55;32.79
10732;BME280;5417;42.686;23.244;2023-03-14T06:05:20;94300.31;;;13.12;33.37
10732;BME280;5417;42.686;23.244;2023-03-14T06:07:47;94292.91;;;13.08;34.01
10732;BME280;5417;42.686;23.244;2023-03-14T06:10:14;94293.72;;;13.08;33.89
10732;BME280;5417;42.686;23.244;2023-03-14T06:12:42;94286.25;;;12.67;34.19
10732;BME280;5417;42.686;23.244;2023-03-14T06:15:10;94289.56;;;12.40;34.91
10732;BME280;5417;42.686;23.244;2023-03-14T06:17:37;94289.56;;;12.30;35.46
10732;BME280;5417;42.686;23.244;2023-03-14T06:20:04;94290.78;;;12.45;34.96
10732;BME280;5417;42.686;23.244;2023-03-14T06:22:31;94304.38;;;12.78;35.51
10732;BME280;5417;42.686;23.244;2023-03-14T06:24:58;94298.38;;;13.24;34.84
10732;BME280;5417;42.686;23.244;2023-03-14T06:27:25;94298.81;;;13.56;34.74
10732;BME280;5417;42.686;23.244;2023-03-14T06:29:53;94309.84;;;13.78;34.23
10732;BME280;5417;42.686;23.244;2023-03-14T06:32:20;94305.28;;;13.80;34.25
10732;BME280;5417;42.686;23.244;2023-03-14T06:34:47;94293.88;;;13.99;34.17
10732;BME280;5417;42.686;23.244;2023-03-14T06:37:14;94291.25;;;13.99;33.89
10732;BME280;5417;42.686;23.244;2023-03-14T06:39:41;94293.84;;;14.44;33.70
10732;BME280;5417;42.686;23.244;2023-03-14T06:42:09;94302.78;;;14.41;33.73
10732;BME280;5417;42.686;23.244;2023-03-14T06:44:36;94290.09;;;14.64;32.63
10732;BME280;5417;42.686;23.244;2023-03-14T06:47:04;94283.41;;;15.13;32.59
10732;BME280;5417;42.686;23.244;2023-03-14T06:49:31;94271.56;;;15.69;31.51
10732;BME280;5417;42.686;23.244;2023-03-14T06:51:58;94267.03;;;15.88;31.02
10732;BME280;5417;42.686;23.244;2023-03-14T06:54:25;94261.69;;;16.22;31.08
10732;BME280;5417;42.686;23.244;2023-03-14T06:56:52;94255.28;;;17.06;30.14
10732;BME280;5417;42.686;23.244;2023-03-14T06:59:19;94263.47;;;17.82;28.42
10732;BME280;5417;42.686;23.244;2023-03-14T07:01:45;94254.31;;;18.32;27.57
10732;BME280;5417;42.686;23.244;2023-03-14T07:04:14;94255.38;;;18.46;26.52
10732;BME280;5417;42.686;23.244;2023-03-14T07:06:42;94247.88;;;18.80;26.68
10732;BME280;5417;42.686;23.244;2023-03-14T07:09:11;94250.09;;;18.91;25.64
10732;BME280;5417;42.686;23.244;2023-03-14T07:11:39;94251.88;;;18.76;25.70
10732;BME280;5417;42.686;23.244;2023-03-14T07:14:05;94247.22;;;18.55;25.68
10732;BME280;5417;42.686;23.244;2023-03-14T07:16:32;94255.00;;;18.72;25.72
10732;BME280;5417;42.686;23.244;2023-03-14T07:19:00;94254.13;;;18.56;25.79
10732;BME280;5417;42.686;23.244;2023-03-14T07:21:28;94257.59;;;18.57;26.66
10732;BME280;5417;42.686;23.244;2023-03-14T07:23:57;94259.16;;;18.43;26.23
10732;BME280;5417;42.686;23.244;2023-03-14T07:26:24;94260.47;;;18.24;26.45
10732;BME280;5417;42.686;23.244;2023-03-14T07:28:51;94247.41;;;18.00;27.25
10732;BME280;5417;42.686;23.244;2023-03-14T07:31:18;94242.44;;;18.05;27.46
10732;BME280;5417;42.686;23.244;2023-03-14T07:33:45;94233.84;;;17.88;26.77
10732;BME280;5417;42.686;23.244;2023-03-14T07:36:12;94233.63;;;17.51;27.06
10732;BME280;5417;42.686;23.244;2023-03-14T07:38:41;94232.19;;;17.40;27.62
10732;BME280;5417;42.686;23.244;2023-03-14T07:41:08;94235.06;;;17.14;28.57
10732;BME280;5417;42.686;23.244;2023-03-14T07:43:35;94228.50;;;17.10;28.08
10732;BME280;5417;42.686;23.244;2023-03-14T07:46:02;94229.69;;;16.91;29.93
10732;BME280;5417;42.686;23.244;2023-03-14T07:48:29;94237.09;;;16.55;28.74
10732;BME280;5417;42.686;23.244;2023-03-14T07:50:56;94235.94;;;16.17;29.14
10732;BME280;5417;42.686;23.244;2023-03-14T07:53:23;94233.09;;;15.94;30.38
10732;BME280;5417;42.686;23.244;2023-03-14T07:55:52;94235.44;;;16.14;30.73
10732;BME280;5417;42.686;23.244;2023-03-14T07:58:20;94225.44;;;16.33;29.87
10732;BME280;5417;42.686;23.244;2023-03-14T08:00:48;94212.47;;;16.24;29.28
10732;BME280;5417;42.686;23.244;2023-03-14T08:03:15;94225.44;;;16.17;30.21
10732;BME280;5417;42.686;23.244;2023-03-14T08:05:43;94218.53;;;16.16;31.11
10732;BME280;5417;42.686;23.244;2023-03-14T08:08:10;94217.22;;;16.20;30.28
10732;BME280;5417;42.686;23.244;2023-03-14T08:10:37;94220.84;;;16.35;30.04
10732;BME280;5417;42.686;23.244;2023-03-14T08:13:05;94218.81;;;15.97;31.26
10732;BME280;5417;42.686;23.244;2023-03-14T08:15:32;94218.81;;;15.46;30.82
10732;BME280;5417;42.686;23.244;2023-03-14T08:18:00;94212.84;;;15.28;31.97
10732;BME280;5417;42.686;23.244;2023-03-14T08:20:28;94215.59;;;15.19;32.52
10732;BME280;5417;42.686;23.244;2023-03-14T08:22:56;94222.22;;;15.05;31.91
10732;BME280;5417;42.686;23.244;2023-03-14T08:25:24;94224.94;;;15.21;38.73
10732;BME280;5417;42.686;23.244;2023-03-14T08:27:51;94228.81;;;15.51;32.49
10732;BME280;5417;42.686;23.244;2023-03-14T08:30:21;94218.00;;;15.46;31.62
10732;BME280;5417;42.686;23.244;2023-03-14T08:32:48;94216.66;;;15.42;31.82
10732;BME280;5417;42.686;23.244;2023-03-14T08:35:15;94216.53;;;15.52;32.36
10732;BME280;5417;42.686;23.244;2023-03-14T08:37:42;94207.31;;;15.73;32.23
10732;BME280;5417;42.686;23.244;2023-03-14T08:40:10;94200.59;;;15.37;33.08
10732;BME280;5417;42.686;23.244;2023-03-14T08:42:38;94199.34;;;14.02;35.07
10732;BME280;5417;42.686;23.244;2023-03-14T08:45:07;94212.00;;;13.71;35.11
10732;BME280;5417;42.686;23.244;2023-03-14T08:47:36;94203.72;;;13.75;34.24
10732;BME280;5417;42.686;23.244;2023-03-14T08:50:03;94197.19;;;13.97;33.82
10732;BME280;5417;42.686;23.244;2023-03-14T08:52:30;94190.94;;;14.08;32.76
10732;BME280;5417;42.686;23.244;2023-03-14T08:54:58;94180.06;;;14.20;33.10
10732;BME280;5417;42.686;23.244;2023-03-14T08:57:25;94184.31;;;14.57;32.30
10732;BME280;5417;42.686;23.244;2023-03-14T08:59:53;94169.50;;;14.74;32.30
10732;BME280;5417;42.686;23.244;2023-03-14T09:02:21;94171.59;;;15.04;33.04
10732;BME280;5417;42.686;23.244;2023-03-14T09:04:49;94156.81;;;15.29;32.09
10732;BME280;5417;42.686;23.244;2023-03-14T09:07:16;94156.31;;;15.34;32.06
10732;BME280;5417;42.686;23.244;2023-03-14T09:09:44;94151.78;;;15.52;30.80
10732;BME280;5417;42.686;23.244;2023-03-14T09:12:11;94157.09;;;15.68;30.11
10732;BME280;5417;42.686;23.244;2023-03-14T09:14:38;94152.03;;;15.83;29.26
10732;BME280;5417;42.686;23.244;2023-03-14T09:17:05;94135.16;;;15.86;29.63
10732;BME280;5417;42.686;23.244;2023-03-14T09:19:32;94137.75;;;15.86;29.22
10732;BME280;5417;42.686;23.244;2023-03-14T09:22:00;94141.31;;;15.60;29.01
10732;BME280;5417;42.686;23.244;2023-03-14T09:24:28;94121.75;;;15.46;29.35
10732;BME280;5417;42.686;23.244;2023-03-14T09:26:55;94126.19;;;15.54;30.45
10732;BME280;5417;42.686;23.244;2023-03-14T09:29:22;94120.88;;;15.13;29.95
10732;BME280;5417;42.686;23.244;2023-03-14T09:31:50;94123.06;;;14.92;30.59
10732;BME280;5417;42.686;23.244;2023-03-14T09:34:17;94112.72;;;15.25;31.33
10732;BME280;5417;42.686;23.244;2023-03-14T09:36:44;94117.81;;;15.42;31.79
10732;BME280;5417;42.686;23.244;2023-03-14T09:39:12;94099.63;;;15.49;31.50
10732;BME280;5417;42.686;23.244;2023-03-14T09:41:41;94097.09;;;15.65;30.61
10732;BME280;5417;42.686;23.244;2023-03-14T09:44:13;94090.84;;;15.74;29.90
10732;BME280;5417;42.686;23.244;2023-03-14T09:46:43;94097.09;;;15.65;30.38
10732;BME280;5417;42.686;23.244;2023-03-14T09:49:18;94081.25;;;15.41;28.75
10732;BME280;5417;42.686;23.244;2023-03-14T09:51:47;94068.47;;;15.38;29.54
10732;BME280;5417;42.686;23.244;2023-03-14T09:54:29;94073.41;;;15.33;29.05
10732;BME280;5417;42.686;23.244;2023-03-14T09:56:57;94073.25;;;15.51;30.24
10732;BME280;5417;42.686;23.244;2023-03-14T09:59:25;94062.91;;;15.57;29.87
10732;BME280;5417;42.686;23.244;2023-03-14T10:01:52;94065.78;;;15.72;29.03
10732;BME280;5417;42.686;23.244;2023-03-14T10:04:22;94056.59;;;15.76;29.34
10732;BME280;5417;42.686;23.244;2023-03-14T10:06:49;94050.19;;;15.87;28.75
10732;BME280;5417;42.686;23.244;2023-03-14T10:09:21;94045.09;;;15.77;28.83
10732;BME280;5417;42.686;23.244;2023-03-14T10:11:54;94036.91;;;15.80;28.82
10732;BME280;5417;42.686;23.244;2023-03-14T10:14:35;94032.13;;;15.84;28.63
10732;BME280;5417;42.686;23.244;2023-03-14T10:17:06;94023.09;;;15.94;28.80
10732;BME280;5417;42.686;23.244;2023-03-14T10:19:35;94020.78;;;15.99;29.82
10732;BME280;5417;42.686;23.244;2023-03-14T10:22:03;94019.78;;;16.08;28.88
10732;BME280;5417;42.686;23.244;2023-03-14T10:24:33;94012.72;;;16.09;28.71
10732;BME280;5417;42.686;23.244;2023-03-14T10:27:03;93994.00;;;16.20;28.41
10732;BME280;5417;42.686;23.244;2023-03-14T10:29:32;93993.69;;;16.07;27.87
10732;BME280;5417;42.686;23.244;2023-03-14T10:32:02;93996.84;;;15.94;28.16
10732;BME280;5417;42.686;23.244;2023-03-14T10:34:31;93988.84;;;15.71;27.99
10732;BME280;5417;42.686;23.244;2023-03-14T10:37:06;93978.78;;;15.99;28.54
10732;BME280;5417;42.686;23.244;2023-03-14T10:39:41;93973.03;;;16.04;28.00
10732;BME280;5417;42.686;23.244;2023-03-14T10:42:19;93966.31;;;16.01;33.47
10732;BME280;5417;42.686;23.244;2023-03-14T10:44:51;93961.34;;;16.23;31.67
10732;BME280;5417;42.686;23.244;2023-03-14T10:47:23;93953.22;;;16.40;31.44
10732;BME280;5417;42.686;23.244;2023-03-14T10:49:51;93949.34;;;16.28;30.42
10732;BME280;5417;42.686;23.244;2023-03-14T10:52:21;93944.84;;;15.98;30.56
10732;BME280;5417;42.686;23.244;2023-03-14T10:54:54;93949.50;;;15.71;31.52
10732;BME280;5417;42.686;23.244;2023-03-14T10:57:24;93944.56;;;15.52;31.46
10732;BME280;5417;42.686;23.244;2023-03-14T10:59:51;93936.03;;;15.42;32.65
10732;BME280;5417;42.686;23.244;2023-03-14T11:02:34;93928.00;;;15.52;30.36
10732;BME280;5417;42.686;23.244;2023-03-14T11:05:15;93921.13;;;15.51;30.51
10732;BME280;5417;42.686;23.244;2023-03-14T11:07:45;93918.00;;;15.47;31.47
10732;BME280;5417;42.686;23.244;2023-03-14T11:10:19;93907.34;;;15.48;31.03
10732;BME280;5417;42.686;23.244;2023-03-14T11:12:58;93900.00;;;15.36;31.79
10732;BME280;5417;42.686;23.244;2023-03-14T11:15:40;93901.94;;;15.42;30.63
10732;BME280;5417;42.686;23.244;2023-03-14T11:18:20;93882.94;;;15.32;32.54
10732;BME280;5417;42.686;23.244;2023-03-14T11:20:57;93877.22;;;15.28;33.05
10732;BME280;5417;42.686;23.244;2023-03-14T11:23:30;93873.59;;;15.37;33.42
10732;BME280;5417;42.686;23.244;2023-03-14T11:26:09;93859.31;;;15.48;32.49
10732;BME280;5417;42.686;23.244;2023-03-14T11:28:45;93854.88;;;15.48;31.67
10732;BME280;5417;42.686;23.244;2023-03-14T11:31:18;93850.47;;;15.41;33.39
10732;BME280;5417;42.686;23.244;2023-03-14T11:33:52;93851.81;;;15.37;32.68
10732;BME280;5417;42.686;23.244;2023-03-14T11:36:25;93852.00;;;15.27;33.77
10732;BME280;5417;42.686;23.244;2023-03-14T11:38:56;93840.03;;;15.25;32.47
10732;BME280;5417;42.686;23.244;2023-03-14T11:41:30;93824.56;;;15.46;34.81
10732;BME280;5417;42.686;23.244;2023-03-14T11:44:02;93824.06;;;15.51;34.45
10732;BME280;5417;42.686;23.244;2023-03-14T11:46:34;93825.22;;;15.48;32.84
10732;BME280;5417;42.686;23.244;2023-03-14T11:49:06;93816.41;;;15.41;33.00
10732;BME280;5417;42.686;23.244;2023-03-14T11:51:39;93821.31;;;15.44;33.47
10732;BME280;5417;42.686;23.244;2023-03-14T11:54:14;93806.56;;;15.43;34.50
10732;BME280;5417;42.686;23.244;2023-03-14T11:56:48;93815.38;;;15.58;35.11
10732;BME280;5417;42.686;23.244;2023-03-14T11:59:21;93800.28;;;15.60;34.97
10732;BME280;5417;42.686;23.244;2023-03-14T12:01:53;93792.06;;;15.71;33.82
10732;BME280;5417;42.686;23.244;2023-03-14T12:04:41;93768.97;;;15.67;31.81
10732;BME280;5417;42.686;23.244;2023-03-14T12:07:17;93773.09;;;15.61;33.74
10732;BME280;5417;42.686;23.244;2023-03-14T12:09:47;93764.03;;;15.56;35.12
10732;BME280;5417;42.686;23.244;2023-03-14T12:12:24;93774.06;;;15.68;32.86
10732;BME280;5417;42.686;23.244;2023-03-14T12:14:55;93754.88;;;15.68;31.99
10732;BME280;5417;42.686;23.244;2023-03-14T12:17:24;93761.34;;;15.80;33.05
10732;BME280;5417;42.686;23.244;2023-03-14T12:20:03;93759.59;;;15.72;32.55
10732;BME280;5417;42.686;23.244;2023-03-14T12:22:35;93750.91;;;15.72;32.75
10732;BME280;5417;42.686;23.244;2023-03-14T12:25:06;93744.50;;;15.74;33.63
10732;BME280;5417;42.686;23.244;2023-03-14T12:28:02;93739.56;;;15.80;32.69
10732;BME280;5417;42.686;23.244;2023-03-14T12:30:32;93731.00;;;15.86;33.19
10732;BME280;5417;42.686;23.244;2023-03-14T12:33:19;93720.38;;;15.79;35.43
10732;BME280;5417;42.686;23.244;2023-03-14T12:35:49;93728.19;;;15.87;33.47
10732;BME280;5417;42.686;23.244;2023-03-14T12:38:23;93721.66;;;15.83;32.80
10732;BME280;5417;42.686;23.244;2023-03-14T12:40:58;93714.44;;;15.85;32.67
10732;BME280;5417;42.686;23.244;2023-03-14T12:43:30;93714.06;;;15.88;33.37
10732;BME280;5417;42.686;23.244;2023-03-14T12:46:08;93702.00;;;16.02;34.59
10732;BME280;5417;42.686;23.244;2023-03-14T12:48:42;93702.38;;;16.22;34.01
10732;BME280;5417;42.686;23.244;2023-03-14T12:51:13;93692.06;;;16.20;32.68
10732;BME280;5417;42.686;23.244;2023-03-14T12:54:01;93684.53;;;16.17;32.74
10732;BME280;5417;42.686;23.244;2023-03-14T12:57:04;93682.66;;;16.26;32.39
10732;BME280;5417;42.686;23.244;2023-03-14T12:59:36;93674.69;;;16.11;30.72
10732;BME280;5417;42.686;23.244;2023-03-14T13:02:25;93676.66;;;16.17;31.36
10732;BME280;5417;42.686;23.244;2023-03-14T13:05:00;93676.66;;;16.17;32.03
10732;BME280;5417;42.686;23.244;2023-03-14T13:07:31;93684.53;;;16.17;31.43
10732;BME280;5417;42.686;23.244;2023-03-14T13:10:19;93677.69;;;16.08;31.04
10732;BME280;5417;42.686;23.244;2023-03-14T13:12:52;93666.66;;;16.13;31.53
10732;BME280;5417;42.686;23.244;2023-03-14T13:15:26;93657.00;;;16.13;31.03